createdAt,value
2022-10-24T00:00:25.479Z,65.33
2022-10-24T00:01:25.368Z,65.26
2022-10-24T00:02:25.445Z,66.54
2022-10-24T00:03:25.340Z,66.04
2022-10-24T00:04:25.310Z,65.51
2022-10-24T00:05:25.302Z,67.54
2022-10-24T00:06:25.307Z,67.16
2022-10-24T00:07:25.268Z,64.62
2022-10-24T00:08:25.239Z,62.85
2022-10-24T00:09:25.226Z,64.79
2022-10-24T00:10:25.204Z,67.04
2022-10-24T00:11:25.222Z,64.87
2022-10-24T00:12:25.173Z,66.81
2022-10-24T00:13:26.169Z,67.23
2022-10-24T00:14:25.139Z,63.93
2022-10-24T00:15:25.114Z,61.20
2022-10-24T00:16:25.133Z,64.43
2022-10-24T00:17:25.082Z,63.49
2022-10-24T00:18:25.082Z,62.87
2022-10-24T00:19:25.056Z,62.52
2022-10-24T00:20:25.044Z,59.80
2022-10-24T00:21:25.056Z,65.28
2022-10-24T00:22:25.011Z,66.13
2022-10-24T00:23:24.980Z,64.21
2022-10-24T00:24:24.977Z,64.79
2022-10-24T00:25:24.949Z,65.43
2022-10-24T00:26:24.963Z,65.24
2022-10-24T00:27:24.920Z,66.39
2022-10-24T00:28:24.910Z,66.31
2022-10-24T00:29:24.901Z,64.91
2022-10-24T00:30:24.889Z,66.15
2022-10-24T00:31:24.877Z,64.83
2022-10-24T00:32:24.846Z,67.12
2022-10-24T00:33:24.829Z,64.48
2022-10-24T00:34:24.792Z,64.38
2022-10-24T00:35:24.786Z,62.38
2022-10-24T00:36:24.795Z,64.59
2022-10-24T00:37:24.759Z,65.59
2022-10-24T00:38:24.766Z,66.50
2022-10-24T00:39:24.725Z,69.19
2022-10-24T00:40:24.692Z,66.20
2022-10-24T00:41:24.726Z,64.99
2022-10-24T00:42:24.685Z,64.63
2022-10-24T00:43:24.655Z,65.53
2022-10-24T00:44:24.642Z,61.21
2022-10-24T00:45:24.635Z,62.54
2022-10-24T00:46:24.656Z,65.11
2022-10-24T00:47:24.578Z,64.99
2022-10-24T00:48:24.575Z,65.04
2022-10-24T00:49:24.545Z,66.74
2022-10-24T00:50:24.533Z,65.80
2022-10-24T00:51:24.596Z,66.12
2022-10-24T00:52:24.495Z,66.35
2022-10-24T00:53:24.497Z,67.58
2022-10-24T00:54:24.467Z,64.54
2022-10-24T00:55:24.472Z,63.27
2022-10-24T00:56:24.476Z,64.40
2022-10-24T00:57:24.427Z,65.64
2022-10-24T00:58:24.399Z,67.38
2022-10-24T00:59:24.385Z,65.70
2022-10-24T01:00:24.417Z,68.53
2022-10-24T01:01:24.427Z,67.01
2022-10-24T01:02:24.324Z,67.04
2022-10-24T01:03:24.317Z,67.73
2022-10-24T01:04:24.291Z,68.24
2022-10-24T01:05:24.291Z,66.62
2022-10-24T01:06:24.303Z,63.73
2022-10-24T01:07:24.255Z,61.71
2022-10-24T01:08:24.246Z,65.49
2022-10-24T01:09:24.211Z,67.14
2022-10-24T01:10:24.249Z,67.38
2022-10-24T01:11:24.225Z,63.06
2022-10-24T01:12:24.169Z,66.93
2022-10-24T01:13:24.143Z,65.86
2022-10-24T01:14:24.127Z,67.01
2022-10-24T01:15:24.109Z,65.75
2022-10-24T01:16:24.121Z,65.77
2022-10-24T01:17:24.079Z,64.72
2022-10-24T01:18:24.061Z,65.50
2022-10-24T01:19:24.039Z,66.47
2022-10-24T01:20:24.026Z,68.01
2022-10-24T01:21:24.046Z,67.02
2022-10-24T01:22:23.990Z,64.81
2022-10-24T01:23:23.993Z,67.04
2022-10-24T01:24:23.971Z,66.28
2022-10-24T01:25:23.952Z,66.89
2022-10-24T01:26:23.970Z,65.53
2022-10-24T01:27:23.917Z,68.84
2022-10-24T01:28:23.889Z,68.70
2022-10-24T01:29:23.881Z,67.76
2022-10-24T01:30:23.849Z,65.83
2022-10-24T01:31:23.868Z,67.77
2022-10-24T01:32:23.820Z,69.36
2022-10-24T01:33:23.811Z,66.66
2022-10-24T01:34:23.782Z,67.37
2022-10-24T01:35:23.826Z,65.97
2022-10-24T01:36:23.790Z,67.88
2022-10-24T01:37:23.755Z,67.70
2022-10-24T01:38:23.721Z,66.76
2022-10-24T01:39:23.705Z,68.00
2022-10-24T01:40:23.694Z,68.94
2022-10-24T01:41:23.705Z,65.38
2022-10-24T01:42:23.668Z,64.81
2022-10-24T01:43:23.637Z,68.85
2022-10-24T01:44:23.630Z,68.33
2022-10-24T01:45:23.609Z,68.22
2022-10-24T01:46:23.635Z,68.04
2022-10-24T01:47:23.578Z,66.27
2022-10-24T01:48:23.557Z,66.86
2022-10-24T01:49:23.559Z,67.87
2022-10-24T01:50:23.519Z,69.10
2022-10-24T01:51:23.577Z,65.77
2022-10-24T01:52:23.492Z,66.77
2022-10-24T01:53:24.974Z,68.59
2022-10-24T01:54:23.452Z,68.52
2022-10-24T01:55:23.433Z,67.00
2022-10-24T01:56:23.466Z,67.22
2022-10-24T01:57:23.413Z,65.02
2022-10-24T01:58:23.396Z,68.58
2022-10-24T01:59:23.390Z,70.36
2022-10-24T02:00:23.427Z,69.50
2022-10-24T02:01:23.441Z,68.44
2022-10-24T02:02:23.343Z,69.15
2022-10-24T02:03:23.315Z,68.05
2022-10-24T02:04:23.318Z,66.61
2022-10-24T02:05:23.271Z,66.57
2022-10-24T02:06:23.282Z,67.67
2022-10-24T02:07:23.235Z,67.93
2022-10-24T02:08:23.227Z,69.59
2022-10-24T02:09:23.202Z,66.78
2022-10-24T02:10:23.201Z,69.82
2022-10-24T02:11:23.201Z,67.30
2022-10-24T02:12:23.151Z,70.27
2022-10-24T02:13:23.131Z,65.40
2022-10-24T02:14:23.114Z,67.63
2022-10-24T02:15:23.136Z,67.89
2022-10-24T02:16:23.106Z,67.78
2022-10-24T02:17:23.111Z,69.80
2022-10-24T02:18:23.045Z,69.95
2022-10-24T02:19:23.015Z,68.88
2022-10-24T02:20:23.014Z,68.62
2022-10-24T02:21:23.022Z,70.32
2022-10-24T02:22:22.974Z,68.25
2022-10-24T02:23:22.947Z,66.22
2022-10-24T02:24:22.947Z,65.67
2022-10-24T02:25:22.939Z,66.71
2022-10-24T02:26:22.943Z,68.22
2022-10-24T02:27:22.900Z,68.41
2022-10-24T02:28:22.867Z,67.39
2022-10-24T02:29:22.865Z,70.39
2022-10-24T02:30:22.849Z,69.61
2022-10-24T02:31:22.878Z,68.96
2022-10-24T02:32:22.803Z,69.36
2022-10-24T02:33:22.796Z,70.17
2022-10-24T02:34:22.764Z,69.21
2022-10-24T02:35:22.753Z,67.87
2022-10-24T02:36:22.761Z,66.63
2022-10-24T02:37:23.727Z,69.74
2022-10-24T02:38:22.695Z,70.98
2022-10-24T02:39:22.676Z,70.32
2022-10-24T02:40:23.684Z,67.44
2022-10-24T02:41:22.671Z,69.68
2022-10-24T02:42:22.670Z,69.75
2022-10-24T02:43:22.611Z,69.70
2022-10-24T02:44:22.608Z,68.65
2022-10-24T02:45:22.573Z,68.90
2022-10-24T02:46:22.588Z,69.11
2022-10-24T02:47:22.544Z,69.74
2022-10-24T02:48:22.536Z,70.66
2022-10-24T02:49:22.516Z,70.21
2022-10-24T02:50:22.505Z,69.93
2022-10-24T02:51:22.518Z,69.26
2022-10-24T02:52:22.463Z,67.47
2022-10-24T02:53:22.444Z,69.51
2022-10-24T02:54:22.431Z,67.95
2022-10-24T02:55:22.432Z,70.57
2022-10-24T02:56:22.458Z,70.16
2022-10-24T02:57:22.393Z,70.35
2022-10-24T02:58:22.356Z,67.66
2022-10-24T02:59:22.399Z,69.50
2022-10-24T03:00:22.318Z,68.37
2022-10-24T03:01:22.420Z,68.64
2022-10-24T03:02:23.294Z,68.66
2022-10-24T03:03:22.277Z,68.57
2022-10-24T03:04:22.260Z,70.02
2022-10-24T03:05:22.245Z,70.29
2022-10-24T03:06:22.255Z,71.07
2022-10-24T03:07:22.261Z,69.43
2022-10-24T03:08:22.201Z,68.13
2022-10-24T03:09:22.187Z,68.78
2022-10-24T03:10:22.189Z,70.06
2022-10-24T03:11:22.231Z,70.32
2022-10-24T03:12:22.134Z,68.45
2022-10-24T03:13:22.108Z,70.17
2022-10-24T03:14:22.094Z,69.11
2022-10-24T03:15:22.077Z,70.09
2022-10-24T03:16:22.090Z,66.94
2022-10-24T03:17:22.039Z,69.16
2022-10-24T03:18:22.022Z,69.00
2022-10-24T03:19:22.006Z,68.75
2022-10-24T03:20:21.993Z,68.36
2022-10-24T03:21:22.002Z,68.11
2022-10-24T03:22:21.970Z,69.30
2022-10-24T03:23:21.933Z,69.35
2022-10-24T03:24:31.189Z,70.38
2022-10-24T03:25:23.913Z,70.54
2022-10-24T03:26:21.925Z,69.38
2022-10-24T03:27:21.870Z,68.59
2022-10-24T03:28:21.851Z,68.03
2022-10-24T03:29:21.843Z,68.08
2022-10-24T03:30:21.837Z,71.92
2022-10-24T03:31:21.839Z,71.38
2022-10-24T03:32:21.835Z,70.24
2022-10-24T03:33:21.780Z,69.11
2022-10-24T03:34:21.751Z,68.44
2022-10-24T03:35:21.739Z,71.42
2022-10-24T03:36:21.789Z,71.05
2022-10-24T03:37:21.745Z,71.35
2022-10-24T03:38:21.687Z,70.46
2022-10-24T03:39:21.665Z,69.89
2022-10-24T03:40:21.668Z,70.63
2022-10-24T03:41:48.035Z,70.16
2022-10-24T03:42:21.628Z,71.78
2022-10-24T03:43:21.609Z,70.64
2022-10-24T03:44:21.612Z,71.00
2022-10-24T03:45:21.579Z,69.78
2022-10-24T03:46:21.600Z,69.62
2022-10-24T03:47:21.541Z,69.79
2022-10-24T03:48:21.537Z,69.52
2022-10-24T03:49:21.551Z,69.64
2022-10-24T03:50:21.498Z,70.26
2022-10-24T03:51:21.535Z,70.52
2022-10-24T03:52:21.480Z,69.09
2022-10-24T03:53:21.447Z,70.40
2022-10-24T03:54:21.438Z,70.70
2022-10-24T03:55:21.431Z,66.81
2022-10-24T03:56:21.448Z,71.70
2022-10-24T03:58:21.361Z,69.27
2022-10-24T03:59:21.343Z,69.93
2022-10-24T04:00:21.344Z,72.13
2022-10-24T04:01:21.402Z,72.13
2022-10-24T04:02:21.331Z,71.43
2022-10-24T04:03:21.288Z,69.79
2022-10-24T04:04:21.260Z,70.32
2022-10-24T04:05:21.258Z,70.28
2022-10-24T04:06:21.232Z,71.20
2022-10-24T04:07:21.252Z,70.64
2022-10-24T04:08:21.183Z,70.88
2022-10-24T04:09:21.175Z,71.57
2022-10-24T04:10:21.157Z,70.20
2022-10-24T04:11:21.149Z,71.13
2022-10-24T04:12:21.173Z,71.46
2022-10-24T04:13:21.105Z,69.76
2022-10-24T04:14:21.111Z,70.63
2022-10-24T04:15:21.073Z,69.19
2022-10-24T04:16:21.075Z,72.63
2022-10-24T04:17:21.079Z,70.63
2022-10-24T04:18:21.034Z,70.84
2022-10-24T04:19:21.008Z,72.23
2022-10-24T04:20:20.998Z,71.20
2022-10-24T04:21:21.928Z,72.02
2022-10-24T04:23:21.947Z,72.09
2022-10-24T04:24:20.920Z,70.90
2022-10-24T04:25:20.896Z,70.86
2022-10-24T04:26:20.883Z,69.83
2022-10-24T04:27:20.889Z,70.66
2022-10-24T04:28:20.851Z,69.63
2022-10-24T04:29:20.831Z,69.38
2022-10-24T04:30:20.813Z,69.97
2022-10-24T04:31:23.438Z,71.25
2022-10-24T04:32:21.810Z,70.98
2022-10-24T04:33:20.781Z,71.03
2022-10-24T04:34:20.742Z,71.54
2022-10-24T04:35:20.745Z,71.91
2022-10-24T04:36:20.721Z,71.24
2022-10-24T04:37:20.726Z,70.65
2022-10-24T04:38:20.685Z,71.55
2022-10-24T04:39:20.668Z,71.22
2022-10-24T04:40:20.648Z,71.59
2022-10-24T04:41:20.638Z,70.92
2022-10-24T04:42:20.642Z,71.33
2022-10-24T04:43:20.593Z,70.45
2022-10-24T04:44:20.587Z,70.68
2022-10-24T04:45:20.563Z,71.35
2022-10-24T04:46:20.547Z,70.18
2022-10-24T04:48:21.520Z,70.97
2022-10-24T04:49:20.512Z,70.09
2022-10-24T04:50:20.495Z,71.52
2022-10-24T04:51:22.386Z,71.21
2022-10-24T04:52:20.503Z,70.87
2022-10-24T04:53:20.430Z,69.92
2022-10-24T04:54:20.409Z,69.93
2022-10-24T04:55:20.417Z,71.60
2022-10-24T04:56:20.391Z,71.11
2022-10-24T04:57:20.431Z,69.19
2022-10-24T04:58:20.344Z,68.98
2022-10-24T04:59:20.406Z,69.92
2022-10-24T05:00:20.329Z,71.54
2022-10-24T05:01:20.403Z,71.02
2022-10-24T05:02:20.375Z,70.90
2022-10-24T05:03:20.351Z,72.21
2022-10-24T05:04:20.250Z,69.70
2022-10-24T05:05:20.229Z,69.32
2022-10-24T05:06:20.205Z,70.73
2022-10-24T05:07:20.233Z,71.24
2022-10-24T05:08:20.166Z,72.12
2022-10-24T05:09:20.155Z,71.35
2022-10-24T05:10:20.133Z,71.16
2022-10-24T05:11:20.149Z,71.91
2022-10-24T05:13:20.097Z,70.95
2022-10-24T05:14:20.098Z,70.87
2022-10-24T05:15:20.052Z,69.94
2022-10-24T05:16:20.048Z,70.86
2022-10-24T05:17:20.058Z,70.05
2022-10-24T05:18:20.019Z,71.35
2022-10-24T05:19:19.985Z,71.33
2022-10-24T05:20:19.978Z,71.60
2022-10-24T05:21:19.948Z,72.03
2022-10-24T05:22:19.992Z,72.42
2022-10-24T05:23:19.917Z,72.15
2022-10-24T05:24:19.909Z,71.73
2022-10-24T05:25:19.915Z,72.25
2022-10-24T05:26:19.915Z,69.73
2022-10-24T05:27:19.926Z,71.07
2022-10-24T05:28:19.863Z,71.02
2022-10-24T05:29:19.858Z,72.96
2022-10-24T05:30:19.812Z,71.83
2022-10-24T05:31:19.912Z,70.45
2022-10-24T05:32:19.818Z,73.41
2022-10-24T05:33:19.779Z,72.53
2022-10-24T05:34:19.748Z,71.29
2022-10-24T05:35:19.752Z,71.87
2022-10-24T05:36:19.731Z,71.42
2022-10-24T05:37:19.768Z,72.15
2022-10-24T05:38:19.672Z,69.95
2022-10-24T05:39:19.684Z,70.83
2022-10-24T05:40:19.633Z,72.65
2022-10-24T05:41:19.641Z,73.02
2022-10-24T05:42:19.635Z,71.41
2022-10-24T05:43:19.626Z,69.81
2022-10-24T05:44:19.583Z,72.52
2022-10-24T05:45:19.578Z,72.19
2022-10-24T05:46:19.618Z,71.90
2022-10-24T05:47:19.552Z,71.80
2022-10-24T05:48:19.586Z,70.14
2022-10-24T05:49:19.486Z,70.80
2022-10-24T05:50:19.486Z,71.62
2022-10-24T05:51:19.455Z,71.91
2022-10-24T05:52:19.534Z,71.37
2022-10-24T05:53:19.452Z,70.76
2022-10-24T05:54:19.418Z,72.32
2022-10-24T05:55:19.423Z,72.39
2022-10-24T05:56:19.378Z,70.30
2022-10-24T05:57:19.399Z,70.70
2022-10-24T05:58:19.338Z,70.36
2022-10-24T05:59:19.336Z,72.48
2022-10-24T06:00:19.318Z,72.74
2022-10-24T06:01:19.351Z,70.96
2022-10-24T06:02:19.428Z,70.87
2022-10-24T06:03:19.254Z,71.31
2022-10-24T06:04:19.232Z,70.68
2022-10-24T06:05:19.895Z,71.86
2022-10-24T06:06:19.199Z,73.36
2022-10-24T06:07:19.296Z,71.15
2022-10-24T06:08:19.217Z,71.26
2022-10-24T06:09:19.166Z,71.55
2022-10-24T06:10:19.148Z,70.72
2022-10-24T06:11:19.213Z,71.05
2022-10-24T06:12:19.125Z,70.35
2022-10-24T06:13:19.103Z,73.08
2022-10-24T06:14:19.084Z,70.95
2022-10-24T06:15:19.088Z,70.68
2022-10-24T06:16:19.057Z,70.53
2022-10-24T06:17:19.068Z,71.13
2022-10-24T06:18:19.011Z,72.41
2022-10-24T06:19:18.974Z,71.74
2022-10-24T06:20:18.997Z,71.96
2022-10-24T06:21:18.967Z,70.54
2022-10-24T06:22:18.959Z,72.25
2022-10-24T06:23:18.946Z,72.61
2022-10-24T06:24:19.725Z,72.12
2022-10-24T06:25:18.876Z,72.84
2022-10-24T06:26:21.628Z,71.32
2022-10-24T06:27:20.881Z,72.41
2022-10-24T06:28:18.831Z,72.12
2022-10-24T06:29:18.824Z,71.72
2022-10-24T06:30:18.816Z,71.85
2022-10-24T06:31:18.806Z,71.36
2022-10-24T06:32:18.808Z,69.74
2022-10-24T06:33:18.788Z,71.04
2022-10-24T06:34:18.760Z,71.56
2022-10-24T06:35:18.728Z,69.75
2022-10-24T06:36:18.704Z,71.12
2022-10-24T06:37:18.739Z,71.86
2022-10-24T06:38:18.674Z,71.61
2022-10-24T06:39:18.650Z,70.87
2022-10-24T06:40:18.635Z,71.07
2022-10-24T06:41:18.616Z,71.01
2022-10-24T06:42:18.646Z,69.48
2022-10-24T06:43:18.592Z,70.80
2022-10-24T06:44:18.569Z,70.51
2022-10-24T06:45:18.535Z,70.82
2022-10-24T06:46:18.569Z,71.61
2022-10-24T06:47:18.561Z,71.01
2022-10-24T06:48:18.565Z,70.78
2022-10-24T06:49:18.502Z,70.80
2022-10-24T06:50:18.466Z,71.05
2022-10-24T06:51:18.453Z,71.52
2022-10-24T06:52:18.484Z,70.49
2022-10-24T06:53:18.527Z,71.02
2022-10-24T06:54:18.425Z,69.53
2022-10-24T06:55:18.394Z,71.28
2022-10-24T06:56:18.378Z,71.04
2022-10-24T06:57:18.403Z,71.07
2022-10-24T06:58:18.434Z,70.47
2022-10-24T06:59:18.316Z,69.19
2022-10-24T07:00:18.402Z,67.84
2022-10-24T07:01:18.474Z,70.82
2022-10-24T07:02:18.459Z,71.54
2022-10-24T07:03:18.310Z,68.91
2022-10-24T07:04:18.228Z,69.81
2022-10-24T07:05:18.197Z,69.08
2022-10-24T07:06:18.309Z,70.89
2022-10-24T07:07:18.212Z,69.73
2022-10-24T07:08:18.291Z,71.14
2022-10-24T07:09:18.132Z,69.68
2022-10-24T07:10:18.126Z,70.41
2022-10-24T07:11:18.126Z,70.62
2022-10-24T07:13:18.187Z,69.85
2022-10-24T07:14:18.081Z,70.89
2022-10-24T07:15:18.042Z,69.77
2022-10-24T07:16:18.035Z,70.09
2022-10-24T07:17:18.047Z,74.53
2022-10-24T07:18:18.113Z,70.00
2022-10-24T07:19:17.989Z,70.91
2022-10-24T07:20:17.988Z,69.61
2022-10-24T07:21:17.955Z,69.97
2022-10-24T07:22:17.962Z,69.17
2022-10-24T07:23:18.899Z,70.85
2022-10-24T07:24:17.891Z,70.70
2022-10-24T07:25:17.876Z,69.77
2022-10-24T07:26:17.902Z,70.70
2022-10-24T07:27:17.898Z,71.07
2022-10-24T07:28:17.817Z,71.82
2022-10-24T07:29:17.808Z,71.01
2022-10-24T07:30:17.870Z,70.52
2022-10-24T07:31:17.798Z,71.65
2022-10-24T07:32:17.815Z,70.68
2022-10-24T07:33:17.779Z,69.93
2022-10-24T07:34:17.765Z,68.06
2022-10-24T07:35:17.707Z,69.80
2022-10-24T07:36:17.696Z,69.13
2022-10-24T07:37:17.771Z,70.97
2022-10-24T07:38:18.746Z,70.43
2022-10-24T07:39:18.662Z,71.06
2022-10-24T07:40:17.642Z,69.87
2022-10-24T07:41:17.622Z,68.38
2022-10-24T07:42:17.629Z,70.03
2022-10-24T07:43:17.588Z,69.83
2022-10-24T07:44:17.563Z,69.21
2022-10-24T07:45:17.599Z,69.07
2022-10-24T07:46:17.567Z,69.59
2022-10-24T07:47:17.569Z,69.64
2022-10-24T07:48:17.488Z,70.36
2022-10-24T07:49:17.497Z,71.06
2022-10-24T07:50:17.537Z,70.95
2022-10-24T07:51:17.456Z,70.18
2022-10-24T07:52:17.436Z,69.57
2022-10-24T07:53:18.410Z,69.76
2022-10-24T07:54:17.411Z,70.95
2022-10-24T07:55:17.382Z,71.46
2022-10-24T07:56:17.361Z,69.40
2022-10-24T07:57:17.543Z,69.84
2022-10-24T07:58:17.334Z,70.77
2022-10-24T07:59:37.011Z,69.70
2022-10-24T08:00:19.295Z,68.10
2022-10-24T08:01:17.404Z,70.28
2022-10-24T08:02:17.405Z,69.83
2022-10-24T08:03:17.233Z,69.82
2022-10-24T08:04:17.226Z,69.54
2022-10-24T08:05:19.434Z,70.13
2022-10-24T08:06:18.200Z,69.90
2022-10-24T08:07:17.223Z,69.69
2022-10-24T08:08:34.857Z,70.14
2022-10-24T08:09:19.368Z,70.01
2022-10-24T08:10:17.103Z,69.57
2022-10-24T08:11:17.088Z,70.82
2022-10-24T08:12:17.095Z,71.23
2022-10-24T08:13:17.166Z,70.67
2022-10-24T08:14:17.031Z,70.36
2022-10-24T08:15:17.011Z,68.45
2022-10-24T08:16:17.007Z,69.63
2022-10-24T08:17:17.021Z,70.00
2022-10-24T08:18:16.965Z,69.81
2022-10-24T08:19:17.012Z,70.00
2022-10-24T08:20:16.937Z,69.07
2022-10-24T08:21:16.946Z,68.49
2022-10-24T08:22:16.936Z,69.55
2022-10-24T08:23:16.894Z,70.12
2022-10-24T08:24:16.892Z,70.17
2022-10-24T08:25:16.855Z,70.46
2022-10-24T08:26:16.832Z,71.40
2022-10-24T08:27:16.922Z,70.38
2022-10-24T08:28:16.812Z,70.69
2022-10-24T08:29:16.785Z,70.06
2022-10-24T08:30:16.781Z,69.77
2022-10-24T08:31:16.760Z,70.90
2022-10-24T08:32:16.765Z,69.55
2022-10-24T08:33:19.501Z,69.93
2022-10-24T08:34:17.705Z,70.39
2022-10-24T08:35:16.690Z,68.74
2022-10-24T08:36:16.669Z,68.37
2022-10-24T08:37:16.691Z,71.65
2022-10-24T08:38:16.633Z,69.06
2022-10-24T08:39:16.628Z,70.01
2022-10-24T08:40:16.622Z,70.35
2022-10-24T08:41:16.593Z,71.08
2022-10-24T08:42:16.607Z,69.93
2022-10-24T08:43:16.562Z,69.04
2022-10-24T08:44:16.538Z,69.15
2022-10-24T08:45:16.527Z,67.95
2022-10-24T08:46:16.507Z,70.00
2022-10-24T08:47:16.586Z,70.19
2022-10-24T08:48:16.470Z,70.07
2022-10-24T08:49:16.458Z,69.31
2022-10-24T08:50:16.440Z,70.40
2022-10-24T08:51:16.419Z,69.43
2022-10-24T08:52:16.432Z,70.54
2022-10-24T08:53:16.384Z,68.35
2022-10-24T08:54:16.371Z,69.19
2022-10-24T08:55:48.030Z,69.86
2022-10-24T08:56:18.343Z,68.49
2022-10-24T08:57:16.358Z,69.40
2022-10-24T08:58:16.306Z,69.26
2022-10-24T08:59:16.278Z,68.94
2022-10-24T09:00:16.274Z,69.17
2022-10-24T09:01:16.349Z,67.93
2022-10-24T09:02:16.367Z,68.98
2022-10-24T09:03:22.928Z,67.78
2022-10-24T09:04:17.195Z,69.66
2022-10-24T09:05:16.178Z,68.19
2022-10-24T09:06:16.165Z,68.24
2022-10-24T09:07:16.208Z,68.64
2022-10-24T09:08:17.470Z,68.18
2022-10-24T09:09:16.105Z,68.82
2022-10-24T09:10:16.105Z,69.81
2022-10-24T09:11:16.067Z,68.64
2022-10-24T09:12:16.085Z,68.23
2022-10-24T09:13:16.045Z,68.75
2022-10-24T09:14:16.011Z,67.74
2022-10-24T09:15:16.012Z,67.74
2022-10-24T09:16:16.006Z,69.97
2022-10-24T09:17:16.057Z,67.70
2022-10-24T09:18:15.948Z,68.65
2022-10-24T09:19:15.964Z,68.03
2022-10-24T09:20:15.911Z,69.91
2022-10-24T09:21:15.903Z,67.10
2022-10-24T09:22:15.910Z,68.50
2022-10-24T09:23:15.886Z,68.50
2022-10-24T09:24:15.844Z,68.41
2022-10-24T09:25:15.898Z,68.99
2022-10-24T09:26:15.817Z,66.88
2022-10-24T09:27:15.898Z,66.95
2022-10-24T09:28:15.787Z,68.39
2022-10-24T09:29:15.764Z,68.89
2022-10-24T09:30:15.754Z,66.35
2022-10-24T09:31:15.722Z,67.20
2022-10-24T09:32:15.746Z,67.51
2022-10-24T09:33:15.688Z,67.50
2022-10-24T09:34:15.685Z,68.48
2022-10-24T09:35:15.656Z,66.41
2022-10-24T09:36:15.642Z,65.88
2022-10-24T09:37:15.676Z,66.96
2022-10-24T09:38:15.613Z,66.92
2022-10-24T09:39:15.592Z,67.62
2022-10-24T09:40:15.579Z,67.30
2022-10-24T09:41:15.581Z,67.53
2022-10-24T09:42:15.592Z,66.60
2022-10-24T09:43:15.542Z,65.45
2022-10-24T09:44:15.507Z,67.09
2022-10-24T09:45:15.495Z,68.39
2022-10-24T09:46:16.487Z,66.41
2022-10-24T09:47:15.507Z,67.22
2022-10-24T09:48:15.446Z,66.39
2022-10-24T09:49:15.428Z,65.93
2022-10-24T09:50:15.418Z,67.81
2022-10-24T09:51:15.396Z,66.64
2022-10-24T09:52:15.403Z,68.92
2022-10-24T09:53:15.367Z,67.09
2022-10-24T09:54:15.357Z,66.76
2022-10-24T09:55:15.329Z,65.46
2022-10-24T09:56:15.328Z,66.08
2022-10-24T09:58:15.288Z,65.95
2022-10-24T09:59:15.271Z,66.08
2022-10-24T10:00:15.253Z,65.73
2022-10-24T10:01:15.305Z,65.90
2022-10-24T10:02:15.413Z,65.76
2022-10-24T10:03:15.196Z,66.09
2022-10-24T10:04:17.212Z,66.21
2022-10-24T10:05:16.177Z,66.36
2022-10-24T10:06:15.148Z,65.88
2022-10-24T10:07:15.164Z,66.25
2022-10-24T10:08:15.156Z,65.71
2022-10-24T10:09:15.110Z,67.33
2022-10-24T10:10:15.094Z,66.68
2022-10-24T10:11:15.073Z,66.93
2022-10-24T10:12:15.084Z,66.43
2022-10-24T10:13:15.036Z,64.93
2022-10-24T10:14:15.031Z,64.29
2022-10-24T10:15:15.004Z,66.71
2022-10-24T10:16:16.019Z,67.45
2022-10-24T10:17:16.010Z,66.45
2022-10-24T10:18:14.964Z,66.82
2022-10-24T10:19:14.944Z,65.75
2022-10-24T10:20:18.780Z,66.22
2022-10-24T10:21:14.913Z,68.52
2022-10-24T10:22:14.943Z,65.34
2022-10-24T10:23:14.894Z,66.15
2022-10-24T10:24:14.875Z,66.30
2022-10-24T10:26:14.831Z,65.83
2022-10-24T10:27:14.844Z,66.10
2022-10-24T10:28:14.800Z,66.35
2022-10-24T10:29:14.789Z,66.69
2022-10-24T10:30:14.884Z,64.80
2022-10-24T10:31:14.755Z,67.71
2022-10-24T10:32:14.774Z,66.59
2022-10-24T10:33:14.721Z,66.35
2022-10-24T10:34:16.227Z,66.15
2022-10-24T10:35:15.691Z,68.12
2022-10-24T10:36:14.682Z,66.97
2022-10-24T10:37:14.707Z,66.96
2022-10-24T10:38:14.645Z,67.28
2022-10-24T10:39:14.626Z,67.76
2022-10-24T10:40:14.657Z,66.25
2022-10-24T10:41:14.590Z,65.93
2022-10-24T10:42:14.610Z,66.22
2022-10-24T10:43:14.563Z,67.23
2022-10-24T10:44:14.550Z,66.51
2022-10-24T10:45:14.540Z,64.27
2022-10-24T10:46:14.513Z,65.72
2022-10-24T10:47:14.526Z,67.46
2022-10-24T10:48:14.481Z,67.30
2022-10-24T10:49:14.471Z,67.81
2022-10-24T10:50:14.548Z,66.21
2022-10-24T10:51:14.447Z,67.32
2022-10-24T10:52:14.550Z,67.63
2022-10-24T10:53:14.397Z,66.43
2022-10-24T10:54:14.393Z,65.36
2022-10-24T10:55:14.361Z,67.38
2022-10-24T10:56:14.406Z,67.07
2022-10-24T10:57:14.549Z,66.66
2022-10-24T10:58:14.318Z,66.20
2022-10-24T10:59:15.020Z,65.27
2022-10-24T11:00:14.345Z,65.70
2022-10-24T11:01:14.330Z,65.37
2022-10-24T11:02:14.423Z,66.00
2022-10-24T11:03:14.220Z,66.21
2022-10-24T11:04:15.231Z,68.08
2022-10-24T11:05:14.205Z,66.57
2022-10-24T11:06:14.177Z,66.47
2022-10-24T11:07:14.201Z,66.42
2022-10-24T11:08:16.002Z,64.94
2022-10-24T11:09:14.140Z,64.46
2022-10-24T11:10:14.236Z,65.75
2022-10-24T11:11:14.105Z,67.62
2022-10-24T11:12:14.125Z,66.68
2022-10-24T11:13:14.072Z,67.49
2022-10-24T11:14:14.072Z,66.62
2022-10-24T11:15:14.089Z,66.01
2022-10-24T11:16:14.035Z,66.56
2022-10-24T11:17:14.016Z,66.77
2022-10-24T11:18:14.021Z,66.40
2022-10-24T11:19:13.975Z,67.27
2022-10-24T11:20:13.966Z,66.24
2022-10-24T11:21:13.944Z,65.93
2022-10-24T11:22:13.966Z,64.95
2022-10-24T11:23:13.906Z,65.37
2022-10-24T11:24:14.076Z,66.92
2022-10-24T11:25:13.905Z,66.49
2022-10-24T11:26:13.861Z,66.17
2022-10-24T11:27:13.854Z,66.42
2022-10-24T11:28:13.861Z,66.85
2022-10-24T11:29:13.815Z,66.79
2022-10-24T11:30:13.798Z,66.94
2022-10-24T11:31:13.858Z,67.55
2022-10-24T11:32:13.766Z,68.21
2022-10-24T11:33:13.771Z,66.64
2022-10-24T11:34:13.745Z,66.36
2022-10-24T11:35:13.711Z,67.57
2022-10-24T11:36:13.707Z,67.42
2022-10-24T11:37:13.676Z,67.25
2022-10-24T11:38:13.684Z,66.44
2022-10-24T11:39:13.645Z,67.72
2022-10-24T11:40:13.637Z,67.09
2022-10-24T11:41:13.613Z,67.61
2022-10-24T11:42:13.636Z,65.37
2022-10-24T11:43:13.610Z,65.37
2022-10-24T11:44:13.559Z,65.40
2022-10-24T11:45:13.538Z,66.75
2022-10-24T11:46:13.526Z,67.04
2022-10-24T11:47:13.556Z,66.92
2022-10-24T11:48:13.537Z,66.20
2022-10-24T11:49:13.486Z,66.04
2022-10-24T11:50:13.453Z,64.66
2022-10-24T11:51:13.485Z,65.43
2022-10-24T11:52:13.459Z,66.49
2022-10-24T11:53:13.439Z,65.84
2022-10-24T11:54:13.387Z,65.71
2022-10-24T11:55:13.376Z,66.22
2022-10-24T11:56:13.349Z,66.73
2022-10-24T11:58:13.353Z,66.32
2022-10-24T11:59:13.312Z,66.85
2022-10-24T12:00:13.279Z,67.04
2022-10-24T12:01:13.284Z,67.86
2022-10-24T12:02:13.316Z,68.69
2022-10-24T12:03:13.272Z,68.21
2022-10-24T12:04:13.492Z,67.11
2022-10-24T12:05:17.972Z,67.67
2022-10-24T12:06:14.185Z,66.01
2022-10-24T12:07:13.163Z,66.53
2022-10-24T12:08:13.196Z,68.06
2022-10-24T12:09:13.123Z,66.84
2022-10-24T12:10:13.117Z,66.60
2022-10-24T12:11:13.118Z,66.46
2022-10-24T12:12:13.089Z,65.96
2022-10-24T12:13:13.094Z,66.23
2022-10-24T12:14:13.058Z,67.45
2022-10-24T12:15:13.036Z,67.08
2022-10-24T12:16:13.019Z,65.71
2022-10-24T12:17:12.998Z,67.28
2022-10-24T12:18:13.494Z,68.06
2022-10-24T12:19:12.959Z,67.37
2022-10-24T12:20:12.939Z,67.65
2022-10-24T12:21:12.923Z,68.02
2022-10-24T12:22:12.966Z,67.81
2022-10-24T12:23:12.918Z,67.49
2022-10-24T12:24:12.877Z,68.05
2022-10-24T12:25:12.858Z,67.47
2022-10-24T12:26:12.841Z,67.49
2022-10-24T12:27:12.832Z,66.51
2022-10-24T12:28:12.839Z,67.44
2022-10-24T12:29:12.793Z,66.73
2022-10-24T12:30:12.884Z,67.43
2022-10-24T12:31:12.759Z,66.83
2022-10-24T12:32:12.742Z,68.08
2022-10-24T12:33:12.749Z,66.94
2022-10-24T12:34:12.694Z,67.33
2022-10-24T12:35:29.477Z,67.99
2022-10-24T12:36:14.667Z,67.12
2022-10-24T12:37:12.643Z,66.58
2022-10-24T12:38:12.659Z,67.97
2022-10-24T12:39:12.619Z,67.01
2022-10-24T12:40:12.656Z,66.30
2022-10-24T12:41:12.572Z,66.99
2022-10-24T12:42:12.561Z,65.81
2022-10-24T12:43:12.561Z,67.95
2022-10-24T12:44:12.531Z,66.13
2022-10-24T12:45:12.513Z,67.93
2022-10-24T12:46:13.262Z,66.73
2022-10-24T12:47:13.485Z,67.54
2022-10-24T12:48:12.481Z,66.90
2022-10-24T12:49:13.443Z,66.70
2022-10-24T12:50:12.441Z,68.63
2022-10-24T12:51:12.401Z,67.43
2022-10-24T12:52:12.391Z,65.91
2022-10-24T12:53:12.409Z,65.62
2022-10-24T12:54:12.355Z,66.04
2022-10-24T12:55:12.336Z,67.56
2022-10-24T12:56:12.358Z,66.00
2022-10-24T12:57:12.295Z,67.32
2022-10-24T12:58:12.306Z,66.66
2022-10-24T12:59:12.388Z,67.65
2022-10-24T13:00:12.303Z,67.30